Time;durP1;ratioP1;P1;durP2;ratioP2;P2;SDS_P1;SDS_P2;PMS_P1;PMS_P2;Temp;Humidity;BMP_temperature;BMP_pressure;BME280_temperature;BME280_humidity;BME280_pressure;Samples;Min_cycle;Max_cycle;Signal;HPM_P1;HPM_P2
2023/05/30 00:00:47;;;;;;;10.93;3.85;;;;;;;;;;5066769;28;20039;-66
2023/05/30 00:03:12;;;;;;;8.05;3.53;;;;;;;;;;5066990;28;20826;-66
2023/05/30 00:05:38;;;;;;;9.38;3.78;;;;;;;;;;5069350;28;20885;-66
2023/05/30 00:08:03;;;;;;;10.55;3.38;;;;;;;;;;5068557;28;20115;-66
2023/05/30 00:10:28;;;;;;;20.38;3.78;;;;;;;;;;5051862;28;20027;-66
2023/05/30 00:12:54;;;;;;;10.00;4.45;;;;;;;;;;5053207;28;20012;-66
2023/05/30 00:15:19;;;;;;;17.20;3.47;;;;;;;;;;5064460;28;20075;-67
2023/05/30 00:17:45;;;;;;;18.15;3.75;;;;;;;;;;5063528;28;20015;-66
2023/05/30 00:20:11;;;;;;;10.55;3.65;;;;;;;;;;5091087;28;20031;-66
2023/05/30 00:22:38;;;;;;;10.38;3.90;;;;;;;;;;5110095;28;20448;-66
2023/05/30 00:25:04;;;;;;;8.68;3.22;;;;;;;;;;5108680;28;20035;-66
2023/05/30 00:27:29;;;;;;;9.00;3.65;;;;;;;;;;5109876;28;20042;-67
2023/05/30 00:29:55;;;;;;;10.88;4.30;;;;;;;;;;5096579;28;20490;-66
2023/05/30 00:32:20;;;;;;;11.43;3.75;;;;;;;;;;5110884;28;20544;-65
2023/05/30 00:34:45;;;;;;;8.68;3.72;;;;;;;;;;5092035;28;20028;-65
2023/05/30 00:37:10;;;;;;;20.67;4.43;;;;;;;;;;5091009;28;20056;-65
2023/05/30 00:39:36;;;;;;;14.63;4.40;;;;;;;;;;5091425;28;20372;-66
2023/05/30 00:42:02;;;;;;;5.80;2.85;;;;;;;;;;5090809;28;20020;-66
2023/05/30 00:44:27;;;;;;;9.20;3.78;;;;;;;;;;5091219;28;20095;-65
2023/05/30 00:46:53;;;;;;;14.93;4.03;;;;;;;;;;5102042;28;20405;-66
2023/05/30 00:49:18;;;;;;;6.43;3.80;;;;;;;;;;5077533;28;20030;-66
2023/05/30 00:51:44;;;;;;;12.48;3.65;;;;;;;;;;5070763;28;20119;-66
2023/05/30 00:54:09;;;;;;;19.63;4.03;;;;;;;;;;5086374;28;20114;-66
2023/05/30 00:56:35;;;;;;;17.75;3.50;;;;;;;;;;5112438;28;20023;-66
2023/05/30 00:59:01;;;;;;;15.05;4.38;;;;;;;;;;5110036;28;20055;-66
2023/05/30 01:01:26;;;;;;;8.82;4.30;;;;;;;;;;5112084;28;20058;-67
2023/05/30 01:03:51;;;;;;;21.13;4.22;;;;;;;;;;5111447;28;20376;-65
2023/05/30 01:06:17;;;;;;;11.25;3.53;;;;;;;;;;5083730;28;20027;-66
2023/05/30 01:08:43;;;;;;;10.40;3.63;;;;;;;;;;5064850;28;20056;-65
2023/05/30 01:11:15;;;;;;;11.57;3.90;;;;;;;;;;5071917;28;20908;-66
2023/05/30 01:14:00;;;;;;;18.05;4.35;;;;;;;;;;5056831;28;20195;-65
2023/05/30 01:16:25;;;;;;;;;;;;;;;;;;5098808;28;20020;-66
2023/05/30 01:18:55;;;;;;;13.50;3.85;;;;;;;;;;5096389;28;19912;-65
2023/05/30 01:21:21;;;;;;;19.75;4.63;;;;;;;;;;5110377;28;20023;-66
2023/05/30 01:24:07;;;;;;;9.52;3.53;;;;;;;;;;5102709;28;20039;-66
2023/05/30 01:26:42;;;;;;;20.88;4.57;;;;;;;;;;5094859;28;20054;-65
2023/05/30 01:29:11;;;;;;;15.23;3.97;;;;;;;;;;5097792;28;20012;-65
2023/05/30 01:31:36;;;;;;;10.20;4.60;;;;;;;;;;5064192;28;20031;-66
2023/05/30 01:34:01;;;;;;;8.98;3.50;;;;;;;;;;5075116;28;20047;-65
2023/05/30 01:36:28;;;;;;;11.05;4.75;;;;;;;;;;5077842;28;20137;-68
2023/05/30 01:38:53;;;;;;;12.32;5.10;;;;;;;;;;5099217;28;20505;-65
2023/05/30 01:41:28;;;;;;;10.55;4.20;;;;;;;;;;5090974;28;20026;-65
2023/05/30 01:44:01;;;;;;;12.77;4.75;;;;;;;;;;5097495;28;20033;-66
2023/05/30 01:46:33;;;;;;;10.23;3.85;;;;;;;;;;5063979;28;20059;-65
2023/05/30 01:49:01;;;;;;;8.88;4.80;;;;;;;;;;5084187;28;20113;-65
2023/05/30 01:51:29;;;;;;;10.45;4.05;;;;;;;;;;5095508;28;20035;-65
2023/05/30 01:53:59;;;;;;;14.75;5.03;;;;;;;;;;5108904;28;20605;-65
2023/05/30 01:56:26;;;;;;;17.38;4.70;;;;;;;;;;5096699;28;20027;-65
2023/05/30 01:58:52;;;;;;;14.77;5.32;;;;;;;;;;5098451;28;20093;-65
2023/05/30 02:01:18;;;;;;;12.50;4.53;;;;;;;;;;5096557;28;20062;-65
2023/05/30 02:03:43;;;;;;;11.30;4.20;;;;;;;;;;5112871;28;20470;-65
2023/05/30 02:06:09;;;;;;;21.90;5.72;;;;;;;;;;5111313;28;20104;-66
2023/05/30 02:08:34;;;;;;;11.32;4.25;;;;;;;;;;5061644;28;20854;-65
2023/05/30 02:11:00;;;;;;;13.20;5.20;;;;;;;;;;5082811;28;20900;-68
2023/05/30 02:13:25;;;;;;;12.85;4.40;;;;;;;;;;5089018;28;20088;-68
2023/05/30 02:15:51;;;;;;;20.50;4.82;;;;;;;;;;5112042;28;20119;-66
2023/05/30 02:18:17;;;;;;;17.73;5.28;;;;;;;;;;5106954;28;20138;-66
2023/05/30 02:20:42;;;;;;;23.83;5.40;;;;;;;;;;5071500;28;20421;-66
2023/05/30 02:23:07;;;;;;;10.77;4.75;;;;;;;;;;5066352;28;20020;-65
2023/05/30 02:25:33;;;;;;;11.85;5.50;;;;;;;;;;5053545;28;20028;-66
2023/05/30 02:27:58;;;;;;;11.93;5.07;;;;;;;;;;5068912;28;20083;-66
2023/05/30 02:30:23;;;;;;;13.68;4.43;;;;;;;;;;5064347;28;20016;-66
2023/05/30 02:32:48;;;;;;;15.18;5.25;;;;;;;;;;5066685;28;20038;-68
2023/05/30 02:35:14;;;;;;;16.05;4.65;;;;;;;;;;5055433;28;20023;-65
2023/05/30 02:37:42;;;;;;;13.00;4.60;;;;;;;;;;5069671;28;20956;-66
2023/05/30 02:40:10;;;;;;;18.38;5.45;;;;;;;;;;5067000;28;20055;-65
2023/05/30 02:42:36;;;;;;;14.75;4.72;;;;;;;;;;5087567;28;20032;-67
2023/05/30 02:45:01;;;;;;;13.95;4.80;;;;;;;;;;5066075;28;20022;-66
2023/05/30 02:47:27;;;;;;;17.13;5.05;;;;;;;;;;5071989;28;20170;-65
2023/05/30 02:49:52;;;;;;;14.85;4.32;;;;;;;;;;5059346;28;20892;-65
2023/05/30 02:52:19;;;;;;;10.38;4.38;;;;;;;;;;5069902;28;20096;-66
2023/05/30 02:54:45;;;;;;;14.57;5.40;;;;;;;;;;5063876;28;20016;-66
2023/05/30 02:57:10;;;;;;;12.05;4.85;;;;;;;;;;5075853;28;20467;-66
2023/05/30 02:59:35;;;;;;;15.80;5.65;;;;;;;;;;5069235;28;20122;-66
2023/05/30 03:02:00;;;;;;;12.88;5.85;;;;;;;;;;5086924;28;20054;-66
2023/05/30 03:04:26;;;;;;;15.90;5.50;;;;;;;;;;5099392;28;20392;-66
2023/05/30 03:06:51;;;;;;;16.17;5.07;;;;;;;;;;5084784;28;20119;-65
2023/05/30 03:09:16;;;;;;;15.15;5.68;;;;;;;;;;5064467;28;20055;-66
2023/05/30 03:11:42;;;;;;;18.15;6.32;;;;;;;;;;5066508;28;20020;-66
2023/05/30 03:14:07;;;;;;;13.05;5.40;;;;;;;;;;5060642;28;20023;-66
2023/05/30 03:16:32;;;;;;;16.80;5.72;;;;;;;;;;5096880;28;20027;-66
2023/05/30 03:19:01;;;;;;;12.13;5.43;;;;;;;;;;5088367;28;20504;-66
2023/05/30 03:21:27;;;;;;;16.92;5.40;;;;;;;;;;5092495;28;20031;-66
2023/05/30 03:23:52;;;;;;;23.98;5.82;;;;;;;;;;5091497;28;20020;-66
2023/05/30 03:26:17;;;;;;;14.10;5.35;;;;;;;;;;5091629;28;20471;-65
2023/05/30 03:28:42;;;;;;;20.42;6.70;;;;;;;;;;5091512;28;20497;-66
2023/05/30 03:31:08;;;;;;;12.43;5.40;;;;;;;;;;5091868;28;20111;-66
2023/05/30 03:33:33;;;;;;;19.55;4.95;;;;;;;;;;5092228;28;20081;-66
2023/05/30 03:35:58;;;;;;;13.27;5.75;;;;;;;;;;5092067;28;20451;-66
2023/05/30 03:38:23;;;;;;;14.88;5.60;;;;;;;;;;5091828;28;20093;-66
2023/05/30 03:40:49;;;;;;;14.90;5.93;;;;;;;;;;5091095;28;20041;-66
2023/05/30 03:43:14;;;;;;;24.13;5.38;;;;;;;;;;5068282;28;20825;-66
2023/05/30 03:45:40;;;;;;;22.50;4.78;;;;;;;;;;5068218;28;20059;-66
2023/05/30 03:48:05;;;;;;;13.18;5.80;;;;;;;;;;5066844;28;20043;-67
2023/05/30 03:50:30;;;;;;;16.13;5.50;;;;;;;;;;5066338;28;20126;-66
2023/05/30 03:52:55;;;;;;;27.60;6.80;;;;;;;;;;5076864;28;20468;-66
2023/05/30 03:55:21;;;;;;;14.77;6.07;;;;;;;;;;5094090;28;20016;-66
2023/05/30 03:57:46;;;;;;;18.27;6.28;;;;;;;;;;5094119;28;20471;-66
2023/05/30 04:00:12;;;;;;;16.42;6.72;;;;;;;;;;5078361;28;20020;-66
2023/05/30 04:02:37;;;;;;;27.73;7.30;;;;;;;;;;5068116;28;20032;-66
2023/05/30 04:05:03;;;;;;;16.55;6.32;;;;;;;;;;5057427;28;21029;-66
2023/05/30 04:07:28;;;;;;;25.13;6.57;;;;;;;;;;5069592;28;20032;-67
2023/05/30 04:09:53;;;;;;;15.13;6.85;;;;;;;;;;5110360;28;20077;-66
2023/05/30 04:12:18;;;;;;;17.95;6.05;;;;;;;;;;5107457;28;20028;-66
2023/05/30 04:14:44;;;;;;;23.13;6.70;;;;;;;;;;5078695;28;20040;-66
2023/05/30 04:17:09;;;;;;;21.92;6.50;;;;;;;;;;5072278;28;20054;-66
2023/05/30 04:19:34;;;;;;;19.30;6.20;;;;;;;;;;5110237;28;20110;-66
2023/05/30 04:22:00;;;;;;;21.55;6.07;;;;;;;;;;5105869;28;20024;-67
2023/05/30 04:24:25;;;;;;;17.88;6.63;;;;;;;;;;5102955;28;20034;-67
2023/05/30 04:26:51;;;;;;;17.73;6.53;;;;;;;;;;5110782;28;20016;-67
2023/05/30 04:29:19;;;;;;;18.17;6.80;;;;;;;;;;5109866;28;20091;-67
2023/05/30 04:31:44;;;;;;;21.40;7.00;;;;;;;;;;5083130;28;20031;-67
2023/05/30 04:34:10;;;;;;;21.77;7.07;;;;;;;;;;5109902;28;20020;-67
2023/05/30 04:36:36;;;;;;;23.70;7.75;;;;;;;;;;5112664;28;20020;-67
2023/05/30 04:39:02;;;;;;;23.30;6.22;;;;;;;;;;5089270;28;20116;-67
2023/05/30 04:41:27;;;;;;;25.02;7.00;;;;;;;;;;5068532;28;20031;-67
2023/05/30 04:43:54;;;;;;;16.48;6.38;;;;;;;;;;5069894;28;20096;-67
2023/05/30 04:46:22;;;;;;;26.88;6.55;;;;;;;;;;5069919;28;20032;-66
2023/05/30 04:48:51;;;;;;;23.13;5.85;;;;;;;;;;5093300;28;20016;-68
2023/05/30 04:51:17;;;;;;;14.15;6.03;;;;;;;;;;5110379;28;20435;-67
2023/05/30 04:53:42;;;;;;;14.55;6.47;;;;;;;;;;5107090;28;20024;-67
2023/05/30 04:56:07;;;;;;;20.27;6.68;;;;;;;;;;5111066;28;20030;-68
2023/05/30 04:58:33;;;;;;;15.63;6.60;;;;;;;;;;5100381;28;20089;-67
2023/05/30 05:00:58;;;;;;;13.65;6.15;;;;;;;;;;5101610;28;20043;-67
2023/05/30 05:03:24;;;;;;;14.05;6.57;;;;;;;;;;5100019;28;20066;-68
2023/05/30 05:05:49;;;;;;;19.33;6.88;;;;;;;;;;5102317;28;20426;-67
2023/05/30 05:08:15;;;;;;;17.33;6.95;;;;;;;;;;5097090;28;20031;-68
2023/05/30 05:10:40;;;;;;;27.17;7.60;;;;;;;;;;5093293;28;20490;-67
2023/05/30 05:13:05;;;;;;;16.83;6.05;;;;;;;;;;5101420;28;20016;-67
2023/05/30 05:15:30;;;;;;;25.98;8.10;;;;;;;;;;5100402;28;20019;-67
2023/05/30 05:17:56;;;;;;;17.33;7.68;;;;;;;;;;5096284;28;20474;-68
2023/05/30 05:20:21;;;;;;;17.20;6.28;;;;;;;;;;5099860;28;20115;-68
2023/05/30 05:22:48;;;;;;;15.18;7.63;;;;;;;;;;5100131;28;20105;-67
2023/05/30 05:25:13;;;;;;;22.30;7.25;;;;;;;;;;5094786;28;20036;-68
2023/05/30 05:27:40;;;;;;;18.88;7.55;;;;;;;;;;5096725;28;20045;-65
2023/05/30 05:30:06;;;;;;;18.30;8.60;;;;;;;;;;5105114;28;20015;-68
2023/05/30 05:32:36;;;;;;;21.25;7.38;;;;;;;;;;5097563;28;20020;-67
2023/05/30 05:35:01;;;;;;;16.42;7.38;;;;;;;;;;5105945;28;20015;-67
2023/05/30 05:37:26;;;;;;;23.10;7.75;;;;;;;;;;5074877;28;20027;-67
2023/05/30 05:39:52;;;;;;;19.10;8.00;;;;;;;;;;5096679;28;20028;-68
2023/05/30 05:42:17;;;;;;;23.85;7.63;;;;;;;;;;5102644;28;20030;-68
2023/05/30 05:44:42;;;;;;;18.17;7.70;;;;;;;;;;5091200;28;20028;-67
2023/05/30 05:47:07;;;;;;;21.52;7.32;;;;;;;;;;5059668;28;20020;-67
2023/05/30 05:49:33;;;;;;;23.38;9.60;;;;;;;;;;5097170;28;20039;-68
2023/05/30 05:51:58;;;;;;;21.05;8.52;;;;;;;;;;5102041;28;20020;-67
2023/05/30 05:54:23;;;;;;;13.40;7.10;;;;;;;;;;5107391;28;20031;-68
2023/05/30 05:56:48;;;;;;;22.70;8.02;;;;;;;;;;5083559;28;20028;-67
2023/05/30 05:59:15;;;;;;;20.80;7.50;;;;;;;;;;5087746;28;20854;-67
2023/05/30 06:01:42;;;;;;;23.35;8.82;;;;;;;;;;5069669;28;20034;-68
2023/05/30 06:04:11;;;;;;;18.88;8.52;;;;;;;;;;5057289;28;20850;-68
2023/05/30 06:06:37;;;;;;;21.30;8.43;;;;;;;;;;5061718;28;20028;-68
2023/05/30 06:09:02;;;;;;;21.38;8.95;;;;;;;;;;5069263;28;20126;-68
2023/05/30 06:11:28;;;;;;;19.05;8.50;;;;;;;;;;5109496;28;20055;-67
2023/05/30 06:13:53;;;;;;;19.52;8.68;;;;;;;;;;5104769;28;20028;-68
2023/05/30 06:16:18;;;;;;;24.13;8.43;;;;;;;;;;5105211;28;20032;-67
2023/05/30 06:18:43;;;;;;;23.73;8.80;;;;;;;;;;5101547;28;20016;-68
2023/05/30 06:21:10;;;;;;;21.88;7.35;;;;;;;;;;5105104;28;20548;-68
2023/05/30 06:23:36;;;;;;;23.13;9.20;;;;;;;;;;5108652;28;20100;-66
2023/05/30 06:26:01;;;;;;;19.75;8.00;;;;;;;;;;5096861;28;20040;-66
2023/05/30 06:28:26;;;;;;;16.17;7.47;;;;;;;;;;5108362;28;20023;-66
2023/05/30 06:30:52;;;;;;;20.13;7.15;;;;;;;;;;5097968;28;20011;-65
2023/05/30 06:33:17;;;;;;;15.98;7.15;;;;;;;;;;5062734;28;20023;-66
2023/05/30 06:35:42;;;;;;;20.83;8.05;;;;;;;;;;5097892;28;20065;-67
2023/05/30 06:38:07;;;;;;;16.10;7.50;;;;;;;;;;5082431;28;20035;-66
2023/05/30 06:40:33;;;;;;;14.55;7.22;;;;;;;;;;5064556;28;20023;-66
2023/05/30 06:42:58;;;;;;;15.63;7.53;;;;;;;;;;5076131;28;20091;-64
2023/05/30 06:45:23;;;;;;;18.65;7.63;;;;;;;;;;5101290;28;20032;-67
2023/05/30 06:47:49;;;;;;;16.13;7.10;;;;;;;;;;5101358;28;20037;-66
2023/05/30 06:50:14;;;;;;;13.77;7.05;;;;;;;;;;5092469;28;20051;-65
2023/05/30 06:52:39;;;;;;;23.10;7.53;;;;;;;;;;5094605;28;20023;-65
2023/05/30 06:55:05;;;;;;;17.02;6.53;;;;;;;;;;5094695;28;20055;-64
2023/05/30 06:57:30;;;;;;;11.85;5.93;;;;;;;;;;5096047;28;20027;-65
2023/05/30 06:59:56;;;;;;;16.75;7.00;;;;;;;;;;5093417;28;20386;-65
2023/05/30 07:02:22;;;;;;;19.77;6.80;;;;;;;;;;5094996;28;20060;-66
2023/05/30 07:04:47;;;;;;;17.73;6.32;;;;;;;;;;5095005;28;20034;-66
2023/05/30 07:07:12;;;;;;;14.50;5.75;;;;;;;;;;5111433;28;20024;-66
2023/05/30 07:09:37;;;;;;;16.85;6.82;;;;;;;;;;5094743;28;20059;-63
2023/05/30 07:12:04;;;;;;;20.42;6.78;;;;;;;;;;5091126;28;20036;-66
2023/05/30 07:14:29;;;;;;;16.98;6.88;;;;;;;;;;5092149;28;20036;-67
2023/05/30 07:16:54;;;;;;;11.18;6.03;;;;;;;;;;5073562;28;20108;-66
2023/05/30 07:19:20;;;;;;;15.75;7.03;;;;;;;;;;5092753;28;20024;-65
2023/05/30 07:21:45;;;;;;;16.27;6.43;;;;;;;;;;5092155;28;20036;-66
2023/05/30 07:24:10;;;;;;;21.15;8.20;;;;;;;;;;5093790;28;20031;-66
2023/05/30 07:26:36;;;;;;;13.05;6.93;;;;;;;;;;5092672;28;20066;-64
2023/05/30 07:29:01;;;;;;;21.35;6.85;;;;;;;;;;5093185;28;20016;-66
2023/05/30 07:31:26;;;;;;;13.93;6.20;;;;;;;;;;5102103;28;20031;-64
2023/05/30 07:33:52;;;;;;;16.50;6.25;;;;;;;;;;5080520;28;20061;-68
2023/05/30 07:36:17;;;;;;;27.58;6.78;;;;;;;;;;5058775;28;20140;-64
2023/05/30 07:38:43;;;;;;;17.77;7.20;;;;;;;;;;5068806;28;20019;-62
2023/05/30 07:41:08;;;;;;;13.02;6.80;;;;;;;;;;5061687;28;20943;-64
2023/05/30 07:43:33;;;;;;;23.55;7.50;;;;;;;;;;5098006;28;20026;-64
2023/05/30 07:45:58;;;;;;;16.92;6.82;;;;;;;;;;5100383;28;20502;-64
2023/05/30 07:48:24;;;;;;;9.90;5.55;;;;;;;;;;5100717;28;20023;-65
2023/05/30 07:50:49;;;;;;;13.35;6.90;;;;;;;;;;5094694;28;20028;-64
2023/05/30 07:53:14;;;;;;;11.32;6.78;;;;;;;;;;5098389;28;20417;-65
2023/05/30 07:55:40;;;;;;;18.25;6.53;;;;;;;;;;5083413;28;20019;-64
2023/05/30 07:58:05;;;;;;;18.35;6.00;;;;;;;;;;5099781;28;20046;-65
2023/05/30 08:00:30;;;;;;;14.63;5.65;;;;;;;;;;5093842;28;20085;-64
2023/05/30 08:02:56;;;;;;;13.48;5.45;;;;;;;;;;5089561;28;20454;-64
2023/05/30 08:05:21;;;;;;;18.73;5.90;;;;;;;;;;5090793;28;20108;-65
2023/05/30 08:07:46;;;;;;;14.88;6.57;;;;;;;;;;5105668;28;20034;-65
2023/05/30 08:10:11;;;;;;;12.80;7.18;;;;;;;;;;5084650;28;21309;-64
2023/05/30 08:12:38;;;;;;;18.38;7.22;;;;;;;;;;5096512;28;20012;-64
2023/05/30 08:15:03;;;;;;;18.73;7.32;;;;;;;;;;5074776;28;20031;-64
2023/05/30 08:17:29;;;;;;;14.75;6.97;;;;;;;;;;5101105;28;20051;-64
2023/05/30 08:19:55;;;;;;;13.57;6.90;;;;;;;;;;5096532;28;20090;-65
2023/05/30 08:22:21;;;;;;;13.48;7.07;;;;;;;;;;5099507;28;20028;-63
2023/05/30 08:24:50;;;;;;;14.13;6.47;;;;;;;;;;5108382;28;20038;-63
2023/05/30 08:27:16;;;;;;;17.35;7.68;;;;;;;;;;5100126;28;20374;-65
2023/05/30 08:29:42;;;;;;;17.55;7.65;;;;;;;;;;5067564;28;20138;-64
2023/05/30 08:32:07;;;;;;;19.55;6.63;;;;;;;;;;5105928;28;20024;-64
2023/05/30 08:34:32;;;;;;;11.93;6.10;;;;;;;;;;5104987;28;20024;-65
2023/05/30 08:36:58;;;;;;;15.50;6.40;;;;;;;;;;5108192;28;20485;-64
2023/05/30 08:39:23;;;;;;;12.20;6.63;;;;;;;;;;5108477;28;20332;-64
2023/05/30 08:41:48;;;;;;;12.02;7.15;;;;;;;;;;5108929;28;20035;-65
2023/05/30 08:44:13;;;;;;;24.55;7.47;;;;;;;;;;5108961;28;20437;-64
2023/05/30 08:46:42;;;;;;;22.17;7.65;;;;;;;;;;5108891;28;20443;-65
2023/05/30 08:49:12;;;;;;;12.32;6.32;;;;;;;;;;5106074;28;20047;-65
2023/05/30 08:51:38;;;;;;;12.40;7.72;;;;;;;;;;5109069;28;20031;-66
2023/05/30 08:54:05;;;;;;;17.95;7.40;;;;;;;;;;5096557;28;20024;-64
2023/05/30 08:56:34;;;;;;;12.98;6.65;;;;;;;;;;5093493;28;20020;-65
2023/05/30 08:59:00;;;;;;;16.75;6.43;;;;;;;;;;5096554;28;20493;-63
2023/05/30 09:01:26;;;;;;;12.80;6.28;;;;;;;;;;5102946;28;20035;-63
2023/05/30 09:03:51;;;;;;;18.05;6.47;;;;;;;;;;5098305;28;20020;-64
2023/05/30 09:06:17;;;;;;;13.70;7.70;;;;;;;;;;5097282;28;20028;-62
2023/05/30 09:08:45;;;;;;;13.30;6.82;;;;;;;;;;5077541;28;20020;-64
2023/05/30 09:11:11;;;;;;;11.40;6.75;;;;;;;;;;5103806;28;20135;-63
2023/05/30 09:13:36;;;;;;;19.13;6.82;;;;;;;;;;5103882;28;20111;-63
2023/05/30 09:16:01;;;;;;;17.17;7.30;;;;;;;;;;5102738;28;20019;-64
2023/05/30 09:18:31;;;;;;;12.23;6.10;;;;;;;;;;5096123;28;20031;-62
2023/05/30 09:20:57;;;;;;;14.82;6.40;;;;;;;;;;5104848;28;20066;-64
2023/05/30 09:23:23;;;;;;;13.45;6.35;;;;;;;;;;5110701;28;20127;-64
2023/05/30 09:25:49;;;;;;;17.40;7.38;;;;;;;;;;5094273;28;20531;-64
2023/05/30 09:28:14;;;;;;;18.45;6.70;;;;;;;;;;5103669;28;20028;-65
2023/05/30 09:30:54;;;;;;;14.20;6.50;;;;;;;;;;5098228;28;20180;-65
2023/05/30 09:33:19;;;;;;;21.48;7.68;;;;;;;;;;5069153;28;20034;-63
2023/05/30 09:35:46;;;;;;;13.05;7.38;;;;;;;;;;5061882;28;20020;-64
2023/05/30 09:38:15;;;;;;;17.48;7.43;;;;;;;;;;5051155;28;20138;-77
2023/05/30 09:40:40;;;;;;;13.05;7.60;;;;;;;;;;5069931;28;20027;-63
2023/05/30 09:43:05;;;;;;;18.48;6.68;;;;;;;;;;5068858;28;20016;-64
2023/05/30 09:45:31;;;;;;;12.32;6.63;;;;;;;;;;5066769;28;20847;-64
2023/05/30 09:47:56;;;;;;;18.42;7.32;;;;;;;;;;5073632;28;20100;-65
2023/05/30 09:50:23;;;;;;;14.45;7.55;;;;;;;;;;5093879;28;20024;-64
2023/05/30 09:52:51;;;;;;;16.10;7.75;;;;;;;;;;5093257;28;20032;-64
2023/05/30 09:55:16;;;;;;;13.85;7.53;;;;;;;;;;5094739;28;20478;-64
2023/05/30 09:57:46;;;;;;;15.32;6.85;;;;;;;;;;5098799;28;20030;-64
2023/05/30 10:00:13;;;;;;;15.35;7.15;;;;;;;;;;5102167;28;20073;-63
2023/05/30 10:02:42;;;;;;;19.05;7.38;;;;;;;;;;5107034;28;20111;-64
2023/05/30 10:05:17;;;;;;;14.32;7.68;;;;;;;;;;5105766;28;20020;-64
2023/05/30 10:07:42;;;;;;;14.18;6.90;;;;;;;;;;5111853;28;20116;-63
2023/05/30 10:10:12;;;;;;;13.10;7.53;;;;;;;;;;5112667;28;20036;-63
2023/05/30 10:12:37;;;;;;;17.13;7.30;;;;;;;;;;5098950;28;20502;-64
2023/05/30 10:15:03;;;;;;;17.38;7.50;;;;;;;;;;5077428;28;20016;-64
2023/05/30 10:17:31;;;;;;;21.13;7.47;;;;;;;;;;5070611;28;20063;-64
2023/05/30 10:20:00;;;;;;;12.20;7.07;;;;;;;;;;5067370;28;20027;-64
2023/05/30 10:22:27;;;;;;;13.40;7.00;;;;;;;;;;5066453;28;20030;-64
2023/05/30 10:24:53;;;;;;;10.40;6.35;;;;;;;;;;5059148;28;20035;-65
2023/05/30 10:27:24;;;;;;;15.32;7.20;;;;;;;;;;5068230;28;20067;-65
2023/05/30 10:30:00;;;;;;;16.65;6.32;;;;;;;;;;5067961;28;20075;-64
2023/05/30 10:32:26;;;;;;;9.93;6.95;;;;;;;;;;5066799;28;20074;-64
2023/05/30 10:34:56;;;;;;;13.00;6.10;;;;;;;;;;5069836;28;20027;-64
2023/05/30 10:37:22;;;;;;;12.60;6.70;;;;;;;;;;5069214;28;20092;-64
2023/05/30 10:40:04;;;;;;;15.55;7.28;;;;;;;;;;5066381;28;20016;-65
2023/05/30 10:42:36;;;;;;;10.48;6.25;;;;;;;;;;5067715;28;20872;-63
2023/05/30 10:45:18;;;;;;;12.10;6.15;;;;;;;;;;5061265;28;20027;-65
2023/05/30 10:47:59;;;;;;;12.70;6.55;;;;;;;;;;5061321;28;20035;-65
2023/05/30 10:50:31;;;;;;;13.18;6.78;;;;;;;;;;5060689;28;20027;-65
2023/05/30 10:52:57;;;;;;;10.23;6.20;;;;;;;;;;5067896;28;20078;-64
2023/05/30 10:55:23;;;;;;;15.35;6.70;;;;;;;;;;5050666;28;20143;-64
2023/05/30 10:57:48;;;;;;;10.50;6.50;;;;;;;;;;5064467;28;20134;-63
2023/05/30 11:00:17;;;;;;;15.93;7.18;;;;;;;;;;5069125;28;20891;-64
2023/05/30 11:02:43;;;;;;;11.07;6.30;;;;;;;;;;5064281;28;20023;-63
2023/05/30 11:05:09;;;;;;;13.20;6.20;;;;;;;;;;5055387;28;20028;-65
2023/05/30 11:07:38;;;;;;;19.38;6.30;;;;;;;;;;5066116;28;20078;-64
2023/05/30 11:10:05;;;;;;;10.80;6.50;;;;;;;;;;5053194;28;20020;-64
2023/05/30 11:12:30;;;;;;;12.13;7.43;;;;;;;;;;5080927;28;20028;-63
2023/05/30 11:14:56;;;;;;;12.00;6.18;;;;;;;;;;5064435;28;20042;-63
2023/05/30 11:17:28;;;;;;;9.43;5.60;;;;;;;;;;5055908;28;20024;-64
2023/05/30 11:20:04;;;;;;;17.13;5.82;;;;;;;;;;5068524;28;20123;-63
2023/05/30 11:22:29;;;;;;;18.60;7.35;;;;;;;;;;5060292;28;20031;-64
2023/05/30 11:25:13;;;;;;;9.90;6.43;;;;;;;;;;5062560;28;20741;-64
2023/05/30 11:27:58;;;;;;;21.80;6.97;;;;;;;;;;5072308;28;20269;-64
2023/05/30 11:30:24;;;;;;;9.75;6.22;;;;;;;;;;5067335;28;20039;-64
2023/05/30 11:32:50;;;;;;;19.30;5.75;;;;;;;;;;5067421;28;20785;-64
2023/05/30 11:35:17;;;;;;;9.73;6.15;;;;;;;;;;5079077;28;20127;-63
2023/05/30 11:37:43;;;;;;;12.80;7.07;;;;;;;;;;5075964;28;20081;-63
2023/05/30 11:40:12;;;;;;;11.82;7.45;;;;;;;;;;5067867;28;20031;-65
2023/05/30 11:42:37;;;;;;;17.25;7.60;;;;;;;;;;5068602;28;20024;-64
2023/05/30 11:45:03;;;;;;;15.98;7.00;;;;;;;;;;5069733;28;20754;-64
2023/05/30 11:47:28;;;;;;;13.52;7.53;;;;;;;;;;5067796;28;20035;-61
2023/05/30 11:49:57;;;;;;;13.68;7.32;;;;;;;;;;5068506;28;20884;-64
2023/05/30 11:52:22;;;;;;;15.85;8.35;;;;;;;;;;5071621;28;20032;-62
2023/05/30 11:54:47;;;;;;;16.70;8.57;;;;;;;;;;5073195;28;20099;-64
2023/05/30 11:57:16;;;;;;;20.57;7.97;;;;;;;;;;5067134;28;21175;-62
2023/05/30 11:59:42;;;;;;;10.70;6.95;;;;;;;;;;5055129;28;20270;-62
2023/05/30 12:02:07;;;;;;;14.20;7.72;;;;;;;;;;5058572;28;20084;-64
2023/05/30 12:04:33;;;;;;;10.85;6.50;;;;;;;;;;5067914;28;20031;-64
2023/05/30 12:07:05;;;;;;;12.85;7.40;;;;;;;;;;5058160;28;20103;-65
2023/05/30 12:09:41;;;;;;;12.15;7.03;;;;;;;;;;5072201;28;20084;-64
2023/05/30 12:12:07;;;;;;;15.60;7.30;;;;;;;;;;5074465;28;20022;-62
2023/05/30 12:14:58;;;;;;;14.45;7.13;;;;;;;;;;5067506;28;20023;-63
2023/05/30 12:17:24;;;;;;;13.60;6.75;;;;;;;;;;5062180;28;20092;-64
2023/05/30 12:20:00;;;;;;;15.05;7.75;;;;;;;;;;5072114;28;20024;-64
2023/05/30 12:22:27;;;;;;;14.05;6.80;;;;;;;;;;5094031;28;20054;-63
2023/05/30 12:24:52;;;;;;;10.93;6.85;;;;;;;;;;5067314;28;20020;-63
2023/05/30 12:27:26;;;;;;;14.95;6.25;;;;;;;;;;5067166;28;20858;-63
2023/05/30 12:29:51;;;;;;;10.52;7.03;;;;;;;;;;5065315;28;20944;-62
2023/05/30 12:32:23;;;;;;;10.18;6.47;;;;;;;;;;5066767;28;20024;-62
2023/05/30 12:34:48;;;;;;;15.25;7.03;;;;;;;;;;5071179;28;20032;-64
2023/05/30 12:37:15;;;;;;;14.48;6.70;;;;;;;;;;5050191;28;20070;-62
2023/05/30 12:39:47;;;;;;;15.60;8.02;;;;;;;;;;5067430;28;20046;-64
2023/05/30 12:42:12;;;;;;;13.48;8.00;;;;;;;;;;5065870;28;20028;-62
2023/05/30 12:45:04;;;;;;;14.88;8.15;;;;;;;;;;5067986;28;20231;-64
2023/05/30 12:47:29;;;;;;;11.32;6.75;;;;;;;;;;5061714;28;20035;-63
2023/05/30 12:49:55;;;;;;;10.13;7.57;;;;;;;;;;5066811;28;20141;-64
2023/05/30 12:52:22;;;;;;;19.85;7.05;;;;;;;;;;5070517;28;20733;-62
2023/05/30 12:54:48;;;;;;;13.75;6.47;;;;;;;;;;5070353;28;20586;-63
2023/05/30 12:57:13;;;;;;;10.65;5.68;;;;;;;;;;5069433;28;20023;-63
2023/05/30 12:59:38;;;;;;;9.57;6.80;;;;;;;;;;5070149;28;20039;-64
2023/05/30 13:02:04;;;;;;;15.40;6.13;;;;;;;;;;5070645;28;21018;-63
2023/05/30 13:04:30;;;;;;;9.05;5.95;;;;;;;;;;5053809;28;20869;-65
2023/05/30 13:06:55;;;;;;;16.55;6.03;;;;;;;;;;5068214;28;20030;-64
2023/05/30 13:09:21;;;;;;;12.75;5.90;;;;;;;;;;5060907;28;20185;-64
2023/05/30 13:11:46;;;;;;;10.73;6.40;;;;;;;;;;5071449;28;20024;-63
2023/05/30 13:14:12;;;;;;;10.02;6.20;;;;;;;;;;5064837;28;20024;-65
2023/05/30 13:16:37;;;;;;;12.38;7.22;;;;;;;;;;5066824;28;20023;-63
2023/05/30 13:19:02;;;;;;;11.50;6.72;;;;;;;;;;5070522;28;20034;-64
2023/05/30 13:21:27;;;;;;;14.23;6.80;;;;;;;;;;5068989;28;20027;-64
2023/05/30 13:23:53;;;;;;;12.77;5.82;;;;;;;;;;5070333;28;20015;-64
2023/05/30 13:26:18;;;;;;;11.20;5.47;;;;;;;;;;5069444;28;20860;-64
2023/05/30 13:28:43;;;;;;;8.25;4.97;;;;;;;;;;5070297;28;20956;-62
2023/05/30 13:31:09;;;;;;;11.45;5.28;;;;;;;;;;5072472;28;20041;-63
2023/05/30 13:33:35;;;;;;;8.07;4.70;;;;;;;;;;5059622;28;20290;-62
2023/05/30 13:36:00;;;;;;;9.30;5.13;;;;;;;;;;5068489;28;20024;-62
2023/05/30 13:38:27;;;;;;;9.55;4.90;;;;;;;;;;5070024;28;20831;-63
2023/05/30 13:40:53;;;;;;;10.68;5.05;;;;;;;;;;5068373;28;20051;-64
2023/05/30 13:43:20;;;;;;;9.38;5.50;;;;;;;;;;5080858;28;20029;-64
2023/05/30 13:45:46;;;;;;;17.10;5.18;;;;;;;;;;5066940;28;20082;-64
2023/05/30 13:48:11;;;;;;;7.30;4.65;;;;;;;;;;5067509;28;20015;-65
2023/05/30 13:50:37;;;;;;;15.55;5.22;;;;;;;;;;5063018;28;20091;-65
2023/05/30 13:53:02;;;;;;;6.57;4.25;;;;;;;;;;5069616;28;20093;-64
2023/05/30 13:55:29;;;;;;;9.88;5.32;;;;;;;;;;5073154;28;20036;-63
2023/05/30 13:57:54;;;;;;;11.77;4.47;;;;;;;;;;5065202;28;20901;-64
2023/05/30 14:00:20;;;;;;;16.17;4.90;;;;;;;;;;5054600;28;20084;-65
2023/05/30 14:02:45;;;;;;;12.32;5.80;;;;;;;;;;5069349;28;20479;-64
2023/05/30 14:05:10;;;;;;;10.43;4.45;;;;;;;;;;5069082;28;20024;-63
2023/05/30 14:07:36;;;;;;;22.45;5.32;;;;;;;;;;5067885;28;20850;-64
2023/05/30 14:10:01;;;;;;;9.32;5.30;;;;;;;;;;5064291;28;20084;-63
2023/05/30 14:12:27;;;;;;;10.07;4.35;;;;;;;;;;5068069;28;20035;-64
2023/05/30 14:14:52;;;;;;;9.35;4.70;;;;;;;;;;5067647;28;20068;-63
2023/05/30 14:17:18;;;;;;;12.07;5.38;;;;;;;;;;5061831;28;20212;-63
2023/05/30 14:19:43;;;;;;;14.43;4.45;;;;;;;;;;5068390;28;20916;-64
2023/05/30 14:22:10;;;;;;;8.27;4.70;;;;;;;;;;5060194;28;20055;-65
2023/05/30 14:24:35;;;;;;;15.25;6.18;;;;;;;;;;5066697;28;20146;-64
2023/05/30 14:27:00;;;;;;;9.15;5.70;;;;;;;;;;5064487;28;20027;-64